Terminal Aerodrome Forecast
Issued by NWS

Home | Current Version | Previous Version | Text Only | Print | Product List | Glossary On
Versions: 1 2 3 4 5 6 7 8 9 10 11 12 13 14
000
FTUS43 KGLD 251746 AAA
TAFMCK
TAF AMD
KMCK 251746Z 2518/2618 14012KT P6SM FEW030
     FM260100 14005KT P6SM FEW250
     FM261600 16011KT P6SM SCT250=

USA.gov is the U.S. government's official web portal to all federal, state and local government web resources and services.